CheckWX is a tool to help pilots better visualize weather data.  It is not intended as a substitute for an official pre-flight weather briefing.

15:47:29 UTC

KMMT TAF
Mc Entire Jngb Airport
Eastover, South Carolina, USA
TAF KMMT 091500Z 0915/1021 01006KT 9999 BKN025 QNH2984INS TEMPO 0919/0923 4800 -TSRA BKN020CB BKN035 BECMG 0923/0924 VRB06KT 9999 BKN045 QNH2982INS BECMG 1005/1006 30006KT 8000 -RA BKN010 QNH2986INS BECMG 1010/1011 35006KT 8000 BR BKN007 OVC015 QNH2991INS BECMG 1014/1015 VRB06KT 9999 NSW BKN014 QNH2995INS BECMG 1017/1018 01006KT 9999 SCT030 QNH2995INS TX32/0921Z TN23/1011Z

Jul-9@
15:00 UTC

Jul-9 @ 15:00 UTC

Jul-9@
23:00 UTC

Jul-9 @ 23:00 UTC

TAF KMMT 091500Z 0915/1021 01006KT 9999 BKN025 QNH2984INS

Expired

Wind
  • 010° at 6 KTS
Cloud Levels
  • Broken at 2,500' AGL

Jul-9@
19:00 UTC

Jul-9 @ 19:00 UTC

Jul-9@
23:00 UTC

Jul-9 @ 23:00 UTC

TEMPO 0919/0923 4800 -TSRA BKN020CB BKN035

Expired

Conditions
Light Thunderstorm, Rain
Cloud Levels
  • Broken at 2,000' AGL
  • Broken at 3,500' AGL

Jul-9@
23:00 UTC

Jul-9 @ 23:00 UTC

Jul-10@
05:00 UTC

Jul-10 @ 05:00 UTC

BECMG 0923/0924 VRB06KT 9999 BKN045 QNH2982INS

Expired

Wind
  • Variable at 6 KTS
Cloud Levels
  • Broken at 4,500' AGL

Jul-10@
05:00 UTC

Jul-10 @ 05:00 UTC

Jul-10@
10:00 UTC

Jul-10 @ 10:00 UTC

BECMG 1005/1006 30006KT 8000 -RA BKN010 QNH2986INS

Expired

Wind
  • 300° at 6 KTS
Conditions
Light Rain
Cloud Levels
  • Broken at 1,000' AGL

Jul-10@
10:00 UTC

Jul-10 @ 10:00 UTC

Jul-10@
14:00 UTC

Jul-10 @ 14:00 UTC

BECMG 1010/1011 35006KT 8000 BR BKN007 OVC015 QNH2991INS

Expired

Wind
  • 350° at 6 KTS
Conditions
Mist
Cloud Levels
  • Broken at 700' AGL
  • Overcast at 1,500' AGL

Jul-10@
14:00 UTC

Jul-10 @ 14:00 UTC

Jul-10@
17:00 UTC

Jul-10 @ 17:00 UTC

BECMG 1014/1015 VRB06KT 9999 NSW BKN014 QNH2995INS

Becoming

Becoming Conditions expected by Fri, Jul 10, 2020 @ 15:00 UTC

Wind
  • Variable at 6 KTS
Conditions
No significant weather
Cloud Levels
  • Broken at 1,400' AGL

Jul-10@
17:00 UTC

Jul-10 @ 17:00 UTC

Jul-10@
21:00 UTC

Jul-10 @ 21:00 UTC

BECMG 1017/1018 01006KT 9999 SCT030 QNH2995INS TX32/0921Z TN23/1011Z

Becoming

Becoming Conditions expected by Fri, Jul 10, 2020 @ 18:00 UTC

Wind
  • 010° at 6 KTS
Conditions
No significant weather
Cloud Levels
  • Scattered at 3,000' AGL